sensor_id;sensor_type;location;lat;lon;timestamp;temperature;humidity
15426;DHT22;7812;50.072;7.036;2023-02-15T00:00:22;0.00;99.90
15426;DHT22;7812;50.072;7.036;2023-02-15T00:02:48;0.20;99.90
15426;DHT22;7812;50.072;7.036;2023-02-15T00:05:13;0.30;99.90
15426;DHT22;7812;50.072;7.036;2023-02-15T00:07:39;0.20;99.90
15426;DHT22;7812;50.072;7.036;2023-02-15T00:10:06;0.10;99.90
15426;DHT22;7812;50.072;7.036;2023-02-15T00:12:32;0.10;99.90
15426;DHT22;7812;50.072;7.036;2023-02-15T00:14:58;0.10;99.90
15426;DHT22;7812;50.072;7.036;2023-02-15T00:17:24;0.10;99.90
15426;DHT22;7812;50.072;7.036;2023-02-15T00:19:49;0.10;99.90
15426;DHT22;7812;50.072;7.036;2023-02-15T00:22:15;0.00;99.90
15426;DHT22;7812;50.072;7.036;2023-02-15T00:24:41;-0.10;99.90
15426;DHT22;7812;50.072;7.036;2023-02-15T00:27:07;-0.20;99.90
15426;DHT22;7812;50.072;7.036;2023-02-15T00:29:34;-0.30;99.90
15426;DHT22;7812;50.072;7.036;2023-02-15T00:32:00;-0.20;99.90
15426;DHT22;7812;50.072;7.036;2023-02-15T00:34:27;-0.20;99.90
15426;DHT22;7812;50.072;7.036;2023-02-15T00:36:53;-0.40;99.90
15426;DHT22;7812;50.072;7.036;2023-02-15T00:39:19;-0.30;99.90
15426;DHT22;7812;50.072;7.036;2023-02-15T00:41:46;-0.40;99.90
15426;DHT22;7812;50.072;7.036;2023-02-15T00:44:12;-0.40;99.90
15426;DHT22;7812;50.072;7.036;2023-02-15T00:46:38;-0.40;99.90
15426;DHT22;7812;50.072;7.036;2023-02-15T00:49:05;-0.40;99.90
15426;DHT22;7812;50.072;7.036;2023-02-15T00:51:32;-0.30;99.90
15426;DHT22;7812;50.072;7.036;2023-02-15T00:53:57;-0.20;99.90
15426;DHT22;7812;50.072;7.036;2023-02-15T00:56:23;-0.10;99.90
15426;DHT22;7812;50.072;7.036;2023-02-15T00:58:49;0.00;99.90
15426;DHT22;7812;50.072;7.036;2023-02-15T01:01:17;0.00;99.90
15426;DHT22;7812;50.072;7.036;2023-02-15T01:03:43;-0.20;99.90
15426;DHT22;7812;50.072;7.036;2023-02-15T01:06:10;-0.40;99.90
15426;DHT22;7812;50.072;7.036;2023-02-15T01:08:36;-0.40;99.90
15426;DHT22;7812;50.072;7.036;2023-02-15T01:11:14;-0.40;99.90
15426;DHT22;7812;50.072;7.036;2023-02-15T01:13:41;-0.50;99.90
15426;DHT22;7812;50.072;7.036;2023-02-15T01:16:07;-0.60;99.90
15426;DHT22;7812;50.072;7.036;2023-02-15T01:18:34;-0.70;99.90
15426;DHT22;7812;50.072;7.036;2023-02-15T01:21:08;-0.60;99.90
15426;DHT22;7812;50.072;7.036;2023-02-15T01:23:34;-0.80;99.90
15426;DHT22;7812;50.072;7.036;2023-02-15T01:26:03;-0.60;99.90
15426;DHT22;7812;50.072;7.036;2023-02-15T01:28:29;-0.40;99.90
15426;DHT22;7812;50.072;7.036;2023-02-15T01:30:55;-0.20;99.90
15426;DHT22;7812;50.072;7.036;2023-02-15T01:33:20;-0.10;99.90
15426;DHT22;7812;50.072;7.036;2023-02-15T01:35:46;-0.10;99.90
15426;DHT22;7812;50.072;7.036;2023-02-15T01:38:13;-0.10;99.90
15426;DHT22;7812;50.072;7.036;2023-02-15T01:40:39;-0.40;99.90
15426;DHT22;7812;50.072;7.036;2023-02-15T01:43:12;-0.50;99.90
15426;DHT22;7812;50.072;7.036;2023-02-15T01:45:38;-0.60;99.90
15426;DHT22;7812;50.072;7.036;2023-02-15T01:48:20;-0.50;99.90
15426;DHT22;7812;50.072;7.036;2023-02-15T01:50:52;-0.50;99.90
15426;DHT22;7812;50.072;7.036;2023-02-15T01:53:29;-0.60;99.90
15426;DHT22;7812;50.072;7.036;2023-02-15T01:56:00;-0.40;99.90
15426;DHT22;7812;50.072;7.036;2023-02-15T01:58:28;-0.30;99.90
15426;DHT22;7812;50.072;7.036;2023-02-15T02:00:56;-0.30;99.90
15426;DHT22;7812;50.072;7.036;2023-02-15T02:06:17;-0.90;99.90
15426;DHT22;7812;50.072;7.036;2023-02-15T02:08:43;-1.00;99.90
15426;DHT22;7812;50.072;7.036;2023-02-15T02:11:13;-1.10;99.90
15426;DHT22;7812;50.072;7.036;2023-02-15T02:13:41;-1.10;99.90
15426;DHT22;7812;50.072;7.036;2023-02-15T02:32:24;-0.50;99.90
15426;DHT22;7812;50.072;7.036;2023-02-15T02:34:56;-0.60;99.90
15426;DHT22;7812;50.072;7.036;2023-02-15T02:37:40;-0.60;99.90
15426;DHT22;7812;50.072;7.036;2023-02-15T02:43:05;-0.70;99.90
15426;DHT22;7812;50.072;7.036;2023-02-15T02:48:26;-0.70;99.90
15426;DHT22;7812;50.072;7.036;2023-02-15T02:50:53;-0.90;99.90
15426;DHT22;7812;50.072;7.036;2023-02-15T02:53:19;-1.00;99.90
15426;DHT22;7812;50.072;7.036;2023-02-15T02:55:50;-0.90;99.90
15426;DHT22;7812;50.072;7.036;2023-02-15T02:58:51;-0.90;99.90
15426;DHT22;7812;50.072;7.036;2023-02-15T03:01:20;-0.70;99.90
15426;DHT22;7812;50.072;7.036;2023-02-15T03:04:00;-0.60;99.90
15426;DHT22;7812;50.072;7.036;2023-02-15T03:09:12;-0.30;99.90
15426;DHT22;7812;50.072;7.036;2023-02-15T03:11:43;-0.20;99.90
15426;DHT22;7812;50.072;7.036;2023-02-15T03:14:10;-0.20;99.90
15426;DHT22;7812;50.072;7.036;2023-02-15T03:16:39;-0.30;99.90
15426;DHT22;7812;50.072;7.036;2023-02-15T03:19:09;-0.30;99.90
15426;DHT22;7812;50.072;7.036;2023-02-15T03:24:14;-0.40;99.90
15426;DHT22;7812;50.072;7.036;2023-02-15T03:26:45;-0.30;99.90
15426;DHT22;7812;50.072;7.036;2023-02-15T03:29:12;-0.30;99.90
15426;DHT22;7812;50.072;7.036;2023-02-15T03:31:42;-0.30;99.90
15426;DHT22;7812;50.072;7.036;2023-02-15T03:34:11;-0.20;99.90
15426;DHT22;7812;50.072;7.036;2023-02-15T03:39:38;-0.10;99.90
15426;DHT22;7812;50.072;7.036;2023-02-15T03:44:42;-0.10;99.90
15426;DHT22;7812;50.072;7.036;2023-02-15T03:47:15;-0.10;99.90
15426;DHT22;7812;50.072;7.036;2023-02-15T03:52:14;-0.20;99.90
15426;DHT22;7812;50.072;7.036;2023-02-15T03:54:41;-0.40;99.90
15426;DHT22;7812;50.072;7.036;2023-02-15T03:57:28;-0.30;99.90
15426;DHT22;7812;50.072;7.036;2023-02-15T04:00:21;-0.20;99.90
15426;DHT22;7812;50.072;7.036;2023-02-15T04:03:18;-0.30;99.90
15426;DHT22;7812;50.072;7.036;2023-02-15T04:05:45;-0.40;99.90
15426;DHT22;7812;50.072;7.036;2023-02-15T04:08:12;-0.50;99.90
15426;DHT22;7812;50.072;7.036;2023-02-15T04:10:38;-0.50;99.90
15426;DHT22;7812;50.072;7.036;2023-02-15T04:13:23;-0.60;99.90
15426;DHT22;7812;50.072;7.036;2023-02-15T04:15:49;-0.50;99.90
15426;DHT22;7812;50.072;7.036;2023-02-15T04:18:35;-0.60;99.90
15426;DHT22;7812;50.072;7.036;2023-02-15T04:21:21;-0.60;99.90
15426;DHT22;7812;50.072;7.036;2023-02-15T04:24:07;-0.50;99.90
15426;DHT22;7812;50.072;7.036;2023-02-15T04:26:52;-0.40;99.90
15426;DHT22;7812;50.072;7.036;2023-02-15T04:29:19;-0.40;99.90
15426;DHT22;7812;50.072;7.036;2023-02-15T04:31:45;-0.40;99.90
15426;DHT22;7812;50.072;7.036;2023-02-15T04:34:11;-0.40;99.90
15426;DHT22;7812;50.072;7.036;2023-02-15T04:36:38;-0.50;99.90
15426;DHT22;7812;50.072;7.036;2023-02-15T04:39:05;-0.60;99.90
15426;DHT22;7812;50.072;7.036;2023-02-15T04:41:31;-0.60;99.90
15426;DHT22;7812;50.072;7.036;2023-02-15T04:43:57;-0.70;99.90
15426;DHT22;7812;50.072;7.036;2023-02-15T04:46:23;-0.70;99.90
15426;DHT22;7812;50.072;7.036;2023-02-15T04:48:49;-0.80;99.90
15426;DHT22;7812;50.072;7.036;2023-02-15T04:51:14;-0.90;99.90
15426;DHT22;7812;50.072;7.036;2023-02-15T04:53:40;-1.10;99.90
15426;DHT22;7812;50.072;7.036;2023-02-15T04:56:06;-1.10;99.90
15426;DHT22;7812;50.072;7.036;2023-02-15T04:58:32;-1.10;99.90
15426;DHT22;7812;50.072;7.036;2023-02-15T05:00:57;-1.00;99.90
15426;DHT22;7812;50.072;7.036;2023-02-15T05:03:24;-0.90;99.90
15426;DHT22;7812;50.072;7.036;2023-02-15T05:05:50;-0.80;99.90
15426;DHT22;7812;50.072;7.036;2023-02-15T05:08:15;-0.70;99.90
15426;DHT22;7812;50.072;7.036;2023-02-15T05:10:41;-0.70;99.90
15426;DHT22;7812;50.072;7.036;2023-02-15T05:13:07;-0.80;99.90
15426;DHT22;7812;50.072;7.036;2023-02-15T05:15:33;-0.90;99.90
15426;DHT22;7812;50.072;7.036;2023-02-15T05:17:59;-1.00;99.90
15426;DHT22;7812;50.072;7.036;2023-02-15T05:20:24;-1.00;99.90
15426;DHT22;7812;50.072;7.036;2023-02-15T05:22:53;-1.10;99.90
15426;DHT22;7812;50.072;7.036;2023-02-15T05:25:20;-1.10;99.90
15426;DHT22;7812;50.072;7.036;2023-02-15T05:28:04;-1.10;99.90
15426;DHT22;7812;50.072;7.036;2023-02-15T05:31:00;-1.30;99.90
15426;DHT22;7812;50.072;7.036;2023-02-15T05:33:27;-1.20;99.90
15426;DHT22;7812;50.072;7.036;2023-02-15T05:35:52;-1.10;99.90
15426;DHT22;7812;50.072;7.036;2023-02-15T05:38:18;-1.10;99.90
15426;DHT22;7812;50.072;7.036;2023-02-15T05:40:44;-1.00;99.90
15426;DHT22;7812;50.072;7.036;2023-02-15T05:43:10;-0.90;99.90
15426;DHT22;7812;50.072;7.036;2023-02-15T05:45:35;-0.80;99.90
15426;DHT22;7812;50.072;7.036;2023-02-15T05:48:01;-0.90;99.90
15426;DHT22;7812;50.072;7.036;2023-02-15T05:50:27;-1.00;99.90
15426;DHT22;7812;50.072;7.036;2023-02-15T05:52:52;-0.90;99.90
15426;DHT22;7812;50.072;7.036;2023-02-15T05:55:18;-1.00;99.90
15426;DHT22;7812;50.072;7.036;2023-02-15T05:57:44;-1.10;99.90
15426;DHT22;7812;50.072;7.036;2023-02-15T06:00:11;-1.10;99.90
15426;DHT22;7812;50.072;7.036;2023-02-15T06:02:37;-1.10;99.90
15426;DHT22;7812;50.072;7.036;2023-02-15T06:05:04;-1.20;99.90
15426;DHT22;7812;50.072;7.036;2023-02-15T06:07:31;-1.40;99.90
15426;DHT22;7812;50.072;7.036;2023-02-15T06:09:57;-1.50;99.90
15426;DHT22;7812;50.072;7.036;2023-02-15T06:12:23;-1.40;99.90
15426;DHT22;7812;50.072;7.036;2023-02-15T06:14:49;-1.30;99.90
15426;DHT22;7812;50.072;7.036;2023-02-15T06:17:14;-1.20;99.90
15426;DHT22;7812;50.072;7.036;2023-02-15T06:19:41;-1.40;99.90
15426;DHT22;7812;50.072;7.036;2023-02-15T06:22:07;-1.30;99.90
15426;DHT22;7812;50.072;7.036;2023-02-15T06:24:33;-1.20;99.90
15426;DHT22;7812;50.072;7.036;2023-02-15T06:26:58;-1.20;99.90
15426;DHT22;7812;50.072;7.036;2023-02-15T06:29:24;-1.30;99.90
15426;DHT22;7812;50.072;7.036;2023-02-15T06:31:50;-1.40;99.90
15426;DHT22;7812;50.072;7.036;2023-02-15T06:34:16;-1.40;99.90
15426;DHT22;7812;50.072;7.036;2023-02-15T06:36:41;-1.50;99.90
15426;DHT22;7812;50.072;7.036;2023-02-15T06:39:07;-1.40;99.90
15426;DHT22;7812;50.072;7.036;2023-02-15T06:41:33;-1.20;99.90
15426;DHT22;7812;50.072;7.036;2023-02-15T06:43:58;-1.40;99.90
15426;DHT22;7812;50.072;7.036;2023-02-15T06:46:24;-1.20;99.90
15426;DHT22;7812;50.072;7.036;2023-02-15T06:48:50;-1.20;99.90
15426;DHT22;7812;50.072;7.036;2023-02-15T06:51:16;-1.10;99.90
15426;DHT22;7812;50.072;7.036;2023-02-15T06:53:41;-1.00;99.90
15426;DHT22;7812;50.072;7.036;2023-02-15T06:56:09;-1.00;99.90
15426;DHT22;7812;50.072;7.036;2023-02-15T06:58:39;-0.90;99.90
15426;DHT22;7812;50.072;7.036;2023-02-15T07:01:05;-1.00;99.90
15426;DHT22;7812;50.072;7.036;2023-02-15T07:03:32;-0.90;99.90
15426;DHT22;7812;50.072;7.036;2023-02-15T07:06:00;-0.70;99.90
15426;DHT22;7812;50.072;7.036;2023-02-15T07:08:27;-0.80;99.90
15426;DHT22;7812;50.072;7.036;2023-02-15T07:10:54;-0.70;99.90
15426;DHT22;7812;50.072;7.036;2023-02-15T07:13:20;-0.80;99.90
15426;DHT22;7812;50.072;7.036;2023-02-15T07:15:47;-0.90;99.90
15426;DHT22;7812;50.072;7.036;2023-02-15T07:18:13;-0.90;99.90
15426;DHT22;7812;50.072;7.036;2023-02-15T07:20:39;-1.00;99.90
15426;DHT22;7812;50.072;7.036;2023-02-15T07:23:08;-0.90;99.90
15426;DHT22;7812;50.072;7.036;2023-02-15T07:25:34;-0.80;99.90
15426;DHT22;7812;50.072;7.036;2023-02-15T07:28:01;-0.70;99.90
15426;DHT22;7812;50.072;7.036;2023-02-15T07:30:28;-0.70;99.90
15426;DHT22;7812;50.072;7.036;2023-02-15T07:33:00;-0.40;99.90
15426;DHT22;7812;50.072;7.036;2023-02-15T07:35:55;0.30;99.90
15426;DHT22;7812;50.072;7.036;2023-02-15T07:38:22;1.40;99.90
15426;DHT22;7812;50.072;7.036;2023-02-15T07:40:48;2.60;99.90
15426;DHT22;7812;50.072;7.036;2023-02-15T07:43:14;3.70;99.90
15426;DHT22;7812;50.072;7.036;2023-02-15T07:45:40;4.00;99.90
15426;DHT22;7812;50.072;7.036;2023-02-15T07:48:06;3.70;99.90
15426;DHT22;7812;50.072;7.036;2023-02-15T07:50:33;3.20;99.90
15426;DHT22;7812;50.072;7.036;2023-02-15T07:53:01;2.60;99.90
15426;DHT22;7812;50.072;7.036;2023-02-15T07:55:27;2.60;99.90
15426;DHT22;7812;50.072;7.036;2023-02-15T07:57:53;3.00;99.90
15426;DHT22;7812;50.072;7.036;2023-02-15T08:00:26;3.70;99.90
15426;DHT22;7812;50.072;7.036;2023-02-15T08:02:54;4.10;99.90
15426;DHT22;7812;50.072;7.036;2023-02-15T08:05:46;4.50;99.90
15426;DHT22;7812;50.072;7.036;2023-02-15T08:08:12;3.60;99.90
15426;DHT22;7812;50.072;7.036;2023-02-15T08:13:54;5.00;99.90
15426;DHT22;7812;50.072;7.036;2023-02-15T08:16:28;7.20;99.90
15426;DHT22;7812;50.072;7.036;2023-02-15T08:18:55;8.00;99.90
15426;DHT22;7812;50.072;7.036;2023-02-15T08:21:22;9.50;99.90
15426;DHT22;7812;50.072;7.036;2023-02-15T08:23:48;10.50;99.90
15426;DHT22;7812;50.072;7.036;2023-02-15T08:26:14;11.00;99.90
15426;DHT22;7812;50.072;7.036;2023-02-15T08:28:41;11.50;99.90
15426;DHT22;7812;50.072;7.036;2023-02-15T08:31:12;11.40;99.90
15426;DHT22;7812;50.072;7.036;2023-02-15T08:33:40;10.60;99.90
15426;DHT22;7812;50.072;7.036;2023-02-15T08:36:14;9.10;99.90
15426;DHT22;7812;50.072;7.036;2023-02-15T08:38:40;7.90;99.90
15426;DHT22;7812;50.072;7.036;2023-02-15T08:43:38;7.70;99.90
15426;DHT22;7812;50.072;7.036;2023-02-15T08:46:05;8.80;99.90
15426;DHT22;7812;50.072;7.036;2023-02-15T08:48:31;10.10;99.90
15426;DHT22;7812;50.072;7.036;2023-02-15T08:50:57;8.70;99.90
15426;DHT22;7812;50.072;7.036;2023-02-15T08:53:22;8.70;99.90
15426;DHT22;7812;50.072;7.036;2023-02-15T08:55:58;9.80;99.90
15426;DHT22;7812;50.072;7.036;2023-02-15T08:58:24;11.60;99.90
15426;DHT22;7812;50.072;7.036;2023-02-15T09:00:50;13.20;99.90
15426;DHT22;7812;50.072;7.036;2023-02-15T09:03:16;14.20;99.90
15426;DHT22;7812;50.072;7.036;2023-02-15T09:05:41;15.10;99.90
15426;DHT22;7812;50.072;7.036;2023-02-15T09:08:07;15.60;99.90
15426;DHT22;7812;50.072;7.036;2023-02-15T09:10:33;15.40;99.90
15426;DHT22;7812;50.072;7.036;2023-02-15T09:12:59;15.50;99.90
15426;DHT22;7812;50.072;7.036;2023-02-15T09:15:24;14.80;99.90
15426;DHT22;7812;50.072;7.036;2023-02-15T09:17:50;14.40;99.90
15426;DHT22;7812;50.072;7.036;2023-02-15T09:20:16;13.80;99.90
15426;DHT22;7812;50.072;7.036;2023-02-15T09:22:41;13.00;99.90
15426;DHT22;7812;50.072;7.036;2023-02-15T09:25:07;12.00;99.90
15426;DHT22;7812;50.072;7.036;2023-02-15T09:27:33;12.00;99.90
15426;DHT22;7812;50.072;7.036;2023-02-15T09:29:58;12.70;99.90
15426;DHT22;7812;50.072;7.036;2023-02-15T09:32:24;13.20;99.90
15426;DHT22;7812;50.072;7.036;2023-02-15T09:34:50;13.70;99.90
15426;DHT22;7812;50.072;7.036;2023-02-15T09:37:16;14.30;99.90
15426;DHT22;7812;50.072;7.036;2023-02-15T09:39:43;14.80;99.90
15426;DHT22;7812;50.072;7.036;2023-02-15T09:42:34;15.90;99.90
15426;DHT22;7812;50.072;7.036;2023-02-15T09:56:43;20.00;93.80
15426;DHT22;7812;50.072;7.036;2023-02-15T09:59:38;18.80;94.00
15426;DHT22;7812;50.072;7.036;2023-02-15T10:05:10;19.10;94.50
15426;DHT22;7812;50.072;7.036;2023-02-15T10:07:54;20.20;93.00
15426;DHT22;7812;50.072;7.036;2023-02-15T10:14:01;21.30;91.60
15426;DHT22;7812;50.072;7.036;2023-02-15T10:17:01;21.00;90.00
15426;DHT22;7812;50.072;7.036;2023-02-15T10:19:51;19.50;91.60
15426;DHT22;7812;50.072;7.036;2023-02-15T10:28:12;18.60;92.50
15426;DHT22;7812;50.072;7.036;2023-02-15T10:30:47;19.40;89.60
15426;DHT22;7812;50.072;7.036;2023-02-15T10:41:27;17.40;91.60
15426;DHT22;7812;50.072;7.036;2023-02-15T10:44:24;18.40;92.00
15426;DHT22;7812;50.072;7.036;2023-02-15T10:47:03;16.20;94.40
15426;DHT22;7812;50.072;7.036;2023-02-15T10:57:53;15.40;94.30
15426;DHT22;7812;50.072;7.036;2023-02-15T11:06:26;15.60;97.50
15426;DHT22;7812;50.072;7.036;2023-02-15T11:09:19;17.50;96.40
15426;DHT22;7812;50.072;7.036;2023-02-15T11:11:49;16.70;95.90
15426;DHT22;7812;50.072;7.036;2023-02-15T11:16:55;14.60;99.10
15426;DHT22;7812;50.072;7.036;2023-02-15T11:22:02;16.70;98.70
15426;DHT22;7812;50.072;7.036;2023-02-15T11:24:31;16.20;96.60
15426;DHT22;7812;50.072;7.036;2023-02-15T11:27:04;16.40;98.10
15426;DHT22;7812;50.072;7.036;2023-02-15T11:29:37;17.20;97.90
15426;DHT22;7812;50.072;7.036;2023-02-15T11:38:12;18.50;94.60
15426;DHT22;7812;50.072;7.036;2023-02-15T11:40:55;17.90;95.10
15426;DHT22;7812;50.072;7.036;2023-02-15T11:43:36;18.90;95.10
15426;DHT22;7812;50.072;7.036;2023-02-15T11:46:04;19.20;94.50
15426;DHT22;7812;50.072;7.036;2023-02-15T11:48:31;19.00;93.40
15426;DHT22;7812;50.072;7.036;2023-02-15T11:50:58;20.00;93.50
15426;DHT22;7812;50.072;7.036;2023-02-15T11:53:27;20.10;92.40
15426;DHT22;7812;50.072;7.036;2023-02-15T11:55:54;19.60;92.60
15426;DHT22;7812;50.072;7.036;2023-02-15T11:58:37;20.20;92.80
15426;DHT22;7812;50.072;7.036;2023-02-15T12:04:04;18.10;92.70
15426;DHT22;7812;50.072;7.036;2023-02-15T12:06:48;18.20;93.50
15426;DHT22;7812;50.072;7.036;2023-02-15T12:12:26;19.00;92.50
15426;DHT22;7812;50.072;7.036;2023-02-15T12:14:54;18.60;93.40
15426;DHT22;7812;50.072;7.036;2023-02-15T12:17:23;18.20;93.70
15426;DHT22;7812;50.072;7.036;2023-02-15T12:19:51;18.20;93.50
15426;DHT22;7812;50.072;7.036;2023-02-15T12:22:38;17.40;92.10
15426;DHT22;7812;50.072;7.036;2023-02-15T12:28:05;16.70;94.80
15426;DHT22;7812;50.072;7.036;2023-02-15T12:30:42;16.80;94.40
15426;DHT22;7812;50.072;7.036;2023-02-15T12:33:41;17.20;93.40
15426;DHT22;7812;50.072;7.036;2023-02-15T12:36:29;17.30;92.00
15426;DHT22;7812;50.072;7.036;2023-02-15T12:41:46;17.50;91.50
15426;DHT22;7812;50.072;7.036;2023-02-15T12:44:19;17.70;90.90
15426;DHT22;7812;50.072;7.036;2023-02-15T12:49:24;17.50;91.30
15426;DHT22;7812;50.072;7.036;2023-02-15T12:51:54;17.70;91.00
15426;DHT22;7812;50.072;7.036;2023-02-15T12:54:26;17.60;91.40
15426;DHT22;7812;50.072;7.036;2023-02-15T12:56:53;17.80;91.60
15426;DHT22;7812;50.072;7.036;2023-02-15T12:59:19;17.40;92.10
15426;DHT22;7812;50.072;7.036;2023-02-15T13:01:46;17.20;92.00
15426;DHT22;7812;50.072;7.036;2023-02-15T13:04:21;17.30;92.40
15426;DHT22;7812;50.072;7.036;2023-02-15T13:06:49;17.20;92.40
15426;DHT22;7812;50.072;7.036;2023-02-15T13:09:25;17.50;92.10
15426;DHT22;7812;50.072;7.036;2023-02-15T13:12:21;17.50;92.40
15426;DHT22;7812;50.072;7.036;2023-02-15T13:14:49;17.60;92.90
15426;DHT22;7812;50.072;7.036;2023-02-15T13:17:32;18.10;92.80
15426;DHT22;7812;50.072;7.036;2023-02-15T13:20:20;18.10;92.50
15426;DHT22;7812;50.072;7.036;2023-02-15T13:22:51;17.60;93.30
15426;DHT22;7812;50.072;7.036;2023-02-15T13:25:23;17.50;93.40
15426;DHT22;7812;50.072;7.036;2023-02-15T13:27:54;17.80;93.50
15426;DHT22;7812;50.072;7.036;2023-02-15T13:30:37;16.90;94.30
15426;DHT22;7812;50.072;7.036;2023-02-15T13:33:32;16.20;96.10
15426;DHT22;7812;50.072;7.036;2023-02-15T13:41:03;16.40;96.80
15426;DHT22;7812;50.072;7.036;2023-02-15T13:43:50;15.70;98.30
15426;DHT22;7812;50.072;7.036;2023-02-15T13:46:23;15.50;98.50
15426;DHT22;7812;50.072;7.036;2023-02-15T14:05:54;15.40;99.90
15426;DHT22;7812;50.072;7.036;2023-02-15T14:19:09;15.70;99.90
15426;DHT22;7812;50.072;7.036;2023-02-15T14:21:51;15.50;99.90
15426;DHT22;7812;50.072;7.036;2023-02-15T14:24:26;15.30;99.90
15426;DHT22;7812;50.072;7.036;2023-02-15T14:29:57;15.50;99.90
15426;DHT22;7812;50.072;7.036;2023-02-15T14:35:05;14.30;99.90
15426;DHT22;7812;50.072;7.036;2023-02-15T14:37:36;13.90;99.90
15426;DHT22;7812;50.072;7.036;2023-02-15T14:40:16;13.80;99.90
15426;DHT22;7812;50.072;7.036;2023-02-15T14:45:41;13.20;99.90
15426;DHT22;7812;50.072;7.036;2023-02-15T14:48:16;13.20;99.90
15426;DHT22;7812;50.072;7.036;2023-02-15T14:50:46;13.00;99.90
15426;DHT22;7812;50.072;7.036;2023-02-15T14:55:40;12.50;99.90
15426;DHT22;7812;50.072;7.036;2023-02-15T14:58:11;12.40;99.90
15426;DHT22;7812;50.072;7.036;2023-02-15T15:00:39;12.00;99.90
15426;DHT22;7812;50.072;7.036;2023-02-15T15:03:20;12.10;99.90
15426;DHT22;7812;50.072;7.036;2023-02-15T15:05:50;12.00;99.90
15426;DHT22;7812;50.072;7.036;2023-02-15T15:08:34;11.90;99.90
15426;DHT22;7812;50.072;7.036;2023-02-15T15:13:59;11.90;99.90
15426;DHT22;7812;50.072;7.036;2023-02-15T15:19:04;11.70;99.90
15426;DHT22;7812;50.072;7.036;2023-02-15T15:49:10;10.00;99.90
15426;DHT22;7812;50.072;7.036;2023-02-15T15:51:40;9.80;99.90
15426;DHT22;7812;50.072;7.036;2023-02-15T15:54:20;9.60;99.90
15426;DHT22;7812;50.072;7.036;2023-02-15T15:56:58;9.40;99.90
15426;DHT22;7812;50.072;7.036;2023-02-15T15:59:28;9.30;99.90
15426;DHT22;7812;50.072;7.036;2023-02-15T16:01:54;9.20;99.90
15426;DHT22;7812;50.072;7.036;2023-02-15T16:04:24;9.00;99.90
15426;DHT22;7812;50.072;7.036;2023-02-15T16:06:51;8.80;99.90
15426;DHT22;7812;50.072;7.036;2023-02-15T16:09:23;8.80;99.90
15426;DHT22;7812;50.072;7.036;2023-02-15T16:11:57;8.60;99.90
15426;DHT22;7812;50.072;7.036;2023-02-15T16:16:54;8.50;99.90
15426;DHT22;7812;50.072;7.036;2023-02-15T16:19:27;8.30;99.90
15426;DHT22;7812;50.072;7.036;2023-02-15T16:21:54;8.20;99.90
15426;DHT22;7812;50.072;7.036;2023-02-15T16:29:56;7.90;99.90
15426;DHT22;7812;50.072;7.036;2023-02-15T16:32:24;7.60;99.90
15426;DHT22;7812;50.072;7.036;2023-02-15T16:34:59;7.50;99.90
15426;DHT22;7812;50.072;7.036;2023-02-15T16:37:32;7.40;99.90
15426;DHT22;7812;50.072;7.036;2023-02-15T16:39:59;7.30;99.90
15426;DHT22;7812;50.072;7.036;2023-02-15T16:42:25;7.30;99.90
15426;DHT22;7812;50.072;7.036;2023-02-15T16:45:16;7.10;99.90
15426;DHT22;7812;50.072;7.036;2023-02-15T16:47:46;7.00;99.90
15426;DHT22;7812;50.072;7.036;2023-02-15T16:50:19;6.80;99.90
15426;DHT22;7812;50.072;7.036;2023-02-15T16:52:45;6.70;99.90
15426;DHT22;7812;50.072;7.036;2023-02-15T16:55:21;6.60;99.90
15426;DHT22;7812;50.072;7.036;2023-02-15T16:57:48;6.50;99.90
15426;DHT22;7812;50.072;7.036;2023-02-15T17:00:24;6.40;99.90
15426;DHT22;7812;50.072;7.036;2023-02-15T17:05:33;6.30;99.90
15426;DHT22;7812;50.072;7.036;2023-02-15T17:08:13;6.10;99.90
15426;DHT22;7812;50.072;7.036;2023-02-15T17:10:42;6.00;99.90
15426;DHT22;7812;50.072;7.036;2023-02-15T17:13:14;5.80;99.90
15426;DHT22;7812;50.072;7.036;2023-02-15T17:20:55;5.70;99.90
15426;DHT22;7812;50.072;7.036;2023-02-15T17:23:32;5.60;99.90
15426;DHT22;7812;50.072;7.036;2023-02-15T17:26:02;5.60;99.90
15426;DHT22;7812;50.072;7.036;2023-02-15T17:28:36;5.50;99.90
15426;DHT22;7812;50.072;7.036;2023-02-15T17:31:06;5.40;99.90
15426;DHT22;7812;50.072;7.036;2023-02-15T17:36:10;5.30;99.90
15426;DHT22;7812;50.072;7.036;2023-02-15T17:38:59;5.20;99.90
15426;DHT22;7812;50.072;7.036;2023-02-15T17:41:26;5.00;99.90
15426;DHT22;7812;50.072;7.036;2023-02-15T17:43:52;5.00;99.90
15426;DHT22;7812;50.072;7.036;2023-02-15T17:46:18;4.90;99.90
15426;DHT22;7812;50.072;7.036;2023-02-15T17:48:49;4.80;99.90
15426;DHT22;7812;50.072;7.036;2023-02-15T17:51:16;4.60;99.90
15426;DHT22;7812;50.072;7.036;2023-02-15T17:53:43;4.50;99.90
15426;DHT22;7812;50.072;7.036;2023-02-15T17:56:29;4.40;99.90
15426;DHT22;7812;50.072;7.036;2023-02-15T17:58:54;4.30;99.90
15426;DHT22;7812;50.072;7.036;2023-02-15T18:01:21;4.40;99.90
15426;DHT22;7812;50.072;7.036;2023-02-15T18:04:10;4.40;99.90
15426;DHT22;7812;50.072;7.036;2023-02-15T18:06:55;4.30;99.90
15426;DHT22;7812;50.072;7.036;2023-02-15T18:09:39;4.10;99.90
15426;DHT22;7812;50.072;7.036;2023-02-15T18:14:50;4.00;99.90
15426;DHT22;7812;50.072;7.036;2023-02-15T18:17:17;3.90;99.90
15426;DHT22;7812;50.072;7.036;2023-02-15T18:19:44;3.90;99.90
15426;DHT22;7812;50.072;7.036;2023-02-15T18:22:12;3.90;99.90
15426;DHT22;7812;50.072;7.036;2023-02-15T18:24:38;3.90;99.90
15426;DHT22;7812;50.072;7.036;2023-02-15T18:27:05;3.90;99.90
15426;DHT22;7812;50.072;7.036;2023-02-15T18:29:31;3.80;99.90
15426;DHT22;7812;50.072;7.036;2023-02-15T18:31:57;3.80;99.90
15426;DHT22;7812;50.072;7.036;2023-02-15T18:34:27;3.80;99.90
15426;DHT22;7812;50.072;7.036;2023-02-15T18:36:55;3.70;99.90
15426;DHT22;7812;50.072;7.036;2023-02-15T18:39:40;3.70;99.90
15426;DHT22;7812;50.072;7.036;2023-02-15T18:44:48;3.70;99.90
15426;DHT22;7812;50.072;7.036;2023-02-15T18:47:14;3.60;99.90
15426;DHT22;7812;50.072;7.036;2023-02-15T18:49:39;3.40;99.90
15426;DHT22;7812;50.072;7.036;2023-02-15T18:52:05;3.30;99.90
15426;DHT22;7812;50.072;7.036;2023-02-15T18:54:34;3.40;99.90
15426;DHT22;7812;50.072;7.036;2023-02-15T18:57:00;3.50;99.90
15426;DHT22;7812;50.072;7.036;2023-02-15T18:59:27;3.50;99.90
15426;DHT22;7812;50.072;7.036;2023-02-15T19:01:55;3.50;99.90
15426;DHT22;7812;50.072;7.036;2023-02-15T19:04:22;3.50;99.90
15426;DHT22;7812;50.072;7.036;2023-02-15T19:06:49;3.30;99.90
15426;DHT22;7812;50.072;7.036;2023-02-15T19:09:18;3.20;99.90
15426;DHT22;7812;50.072;7.036;2023-02-15T19:11:52;3.30;99.90
15426;DHT22;7812;50.072;7.036;2023-02-15T19:14:27;3.30;99.90
15426;DHT22;7812;50.072;7.036;2023-02-15T19:16:54;3.30;99.90
15426;DHT22;7812;50.072;7.036;2023-02-15T19:19:20;3.40;99.90
15426;DHT22;7812;50.072;7.036;2023-02-15T19:21:46;3.20;99.90
15426;DHT22;7812;50.072;7.036;2023-02-15T19:24:20;3.10;99.90
15426;DHT22;7812;50.072;7.036;2023-02-15T19:26:48;3.10;99.90
15426;DHT22;7812;50.072;7.036;2023-02-15T19:29:24;3.10;99.90
15426;DHT22;7812;50.072;7.036;2023-02-15T19:31:50;2.90;99.90
15426;DHT22;7812;50.072;7.036;2023-02-15T19:34:17;2.90;99.90
15426;DHT22;7812;50.072;7.036;2023-02-15T19:36:45;2.80;99.90
15426;DHT22;7812;50.072;7.036;2023-02-15T19:39:24;2.70;99.90
15426;DHT22;7812;50.072;7.036;2023-02-15T19:41:51;2.70;99.90
15426;DHT22;7812;50.072;7.036;2023-02-15T19:44:17;2.70;99.90
15426;DHT22;7812;50.072;7.036;2023-02-15T19:46:44;2.70;99.90